Time,TemperatureF,DewpointF,PressureIn,WindDirection,WindDirectionDegrees,WindSpeedMPH,WindSpeedGustMPH,Humidity,HourlyPrecipIn,Conditions,Clouds,dailyrainin,SoftwareType,DateUTC
2013-08-03 00:14:00,68.0,66.0,30.07,NE,34,0.0,-999.0,94,-99.99,,,0.00,weatherlink.com 1.10,2013-08-03 05:14:00,
2013-08-03 00:29:00,67.6,66.0,30.07,NE,34,0.0,-999.0,95,-99.99,,,0.00,weatherlink.com 1.10,2013-08-03 05:29:00,
2013-08-03 00:44:00,67.6,66.0,30.07,NE,34,0.0,-999.0,95,-99.99,,,0.00,weatherlink.com 1.10,2013-08-03 05:44:00,
2013-08-03 00:59:00,67.5,66.0,30.07,NE,34,0.0,-999.0,95,-99.99,,,0.00,weatherlink.com 1.10,2013-08-03 05:59:00,
2013-08-03 01:14:00,67.5,66.0,30.07,NE,34,0.0,-999.0,95,-99.99,,,0.00,weatherlink.com 1.10,2013-08-03 06:14:00,
2013-08-03 01:29:00,67.2,66.0,30.07,NE,34,0.0,-999.0,96,-99.99,,,0.00,weatherlink.com 1.10,2013-08-03 06:29:00,
2013-08-03 01:44:00,67.1,66.0,30.06,NE,34,0.0,-999.0,96,-99.99,,,0.00,weatherlink.com 1.10,2013-08-03 06:44:00,
2013-08-03 01:59:00,66.9,66.0,30.06,NE,34,0.0,-999.0,96,-99.99,,,0.00,weatherlink.com 1.10,2013-08-03 06:59:00,
2013-08-03 02:15:00,67.0,66.0,30.07,NE,34,0.0,-999.0,96,-99.99,,,0.00,weatherlink.com 1.10,2013-08-03 07:15:00,
2013-08-03 02:30:00,66.9,66.0,30.06,NE,34,0.0,-999.0,96,-99.99,,,0.00,weatherlink.com 1.10,2013-08-03 07:30:00,
2013-08-03 02:45:00,66.7,65.0,30.05,NE,34,0.0,-999.0,95,-99.99,,,0.00,weatherlink.com 1.10,2013-08-03 07:45:00,
2013-08-03 03:00:00,66.8,66.0,30.04,NE,34,0.0,-999.0,96,-99.99,,,0.00,weatherlink.com 1.10,2013-08-03 08:00:00,
2013-08-03 03:15:00,66.5,65.0,30.04,NE,34,0.0,-999.0,96,-99.99,,,0.00,weatherlink.com 1.10,2013-08-03 08:15:00,
2013-08-03 03:30:00,66.4,65.0,30.04,NE,34,0.0,-999.0,96,-99.99,,,0.00,weatherlink.com 1.10,2013-08-03 08:30:00,
2013-08-03 03:44:00,66.1,65.0,30.05,NE,34,0.0,-999.0,96,-99.99,,,0.00,weatherlink.com 1.10,2013-08-03 08:44:00,
2013-08-03 03:59:00,65.8,65.0,30.05,NE,34,0.0,-999.0,96,-99.99,,,0.00,weatherlink.com 1.10,2013-08-03 08:59:00,
2013-08-03 04:15:00,65.8,65.0,30.05,NE,34,0.0,-999.0,96,-99.99,,,0.00,weatherlink.com 1.10,2013-08-03 09:15:00,
2013-08-03 04:29:00,65.8,65.0,30.04,NE,34,0.0,-999.0,96,-99.99,,,0.00,weatherlink.com 1.10,2013-08-03 09:29:00,
2013-08-03 04:45:00,65.2,64.0,30.04,NE,34,0.0,-999.0,96,-99.99,,,0.00,weatherlink.com 1.10,2013-08-03 09:45:00,
2013-08-03 05:00:00,65.4,64.0,30.05,NE,34,0.0,-999.0,96,-99.99,,,0.00,weatherlink.com 1.10,2013-08-03 10:00:00,
2013-08-03 05:15:00,65.7,65.0,30.05,NE,34,0.0,-999.0,97,-99.99,,,0.00,weatherlink.com 1.10,2013-08-03 10:15:00,
2013-08-03 05:30:00,65.5,64.0,30.06,NE,34,0.0,-999.0,96,-99.99,,,0.00,weatherlink.com 1.10,2013-08-03 10:30:00,
2013-08-03 05:45:00,65.6,65.0,30.06,NE,34,0.0,-999.0,97,-99.99,,,0.00,weatherlink.com 1.10,2013-08-03 10:45:00,
2013-08-03 06:00:00,65.7,65.0,30.06,NE,34,0.0,-999.0,97,-99.99,,,0.00,weatherlink.com 1.10,2013-08-03 11:00:00,
2013-08-03 06:15:00,65.7,65.0,30.06,NE,34,0.0,-999.0,97,-99.99,,,0.00,weatherlink.com 1.10,2013-08-03 11:15:00,
2013-08-03 06:30:00,66.0,65.0,30.06,NE,34,0.0,-999.0,97,-99.99,,,0.00,weatherlink.com 1.10,2013-08-03 11:30:00,
2013-08-03 06:45:00,66.7,66.0,30.07,NNE,33,0.0,-999.0,97,-99.99,,,0.00,weatherlink.com 1.10,2013-08-03 11:45:00,
2013-08-03 07:00:00,67.3,67.0,30.07,NNE,33,0.0,-999.0,97,-99.99,,,0.00,weatherlink.com 1.10,2013-08-03 12:00:00,
2013-08-03 07:15:00,68.0,67.0,30.07,NNE,32,0.0,-999.0,97,-99.99,,,0.00,weatherlink.com 1.10,2013-08-03 12:15:00,
2013-08-03 07:30:00,69.3,69.0,30.07,NNE,31,0.0,-999.0,97,-99.99,,,0.00,weatherlink.com 1.10,2013-08-03 12:30:00,
2013-08-03 07:46:00,71.0,70.0,30.09,NNE,28,0.0,-999.0,96,-99.99,,,0.00,weatherlink.com 1.10,2013-08-03 12:46:00,
2013-08-03 08:00:00,72.6,71.0,30.09,NNE,28,0.0,-999.0,93,-99.99,,,0.00,weatherlink.com 1.10,2013-08-03 13:00:00,
2013-08-03 08:15:00,74.4,71.0,30.09,NNE,28,0.0,-999.0,90,-99.99,,,0.00,weatherlink.com 1.10,2013-08-03 13:15:00,
2013-08-03 08:30:00,76.0,71.0,30.10,NNE,28,0.0,-999.0,84,-99.99,,,0.00,weatherlink.com 1.10,2013-08-03 13:30:00,
2013-08-03 08:45:00,76.9,71.0,30.10,NNE,28,0.0,-999.0,82,-99.99,,,0.00,weatherlink.com 1.10,2013-08-03 13:45:00,
2013-08-03 09:00:00,77.4,70.0,30.09,NNE,28,0.0,-999.0,79,-99.99,,,0.00,weatherlink.com 1.10,2013-08-03 14:00:00,
2013-08-03 09:15:00,77.8,72.0,30.09,NNE,21,0.0,-999.0,81,-99.99,,,0.00,weatherlink.com 1.10,2013-08-03 14:15:00,
2013-08-03 09:30:00,77.6,71.0,30.09,WSW,246,2.0,-999.0,79,-99.99,,,0.00,weatherlink.com 1.10,2013-08-03 14:30:00,
2013-08-03 09:45:00,77.9,72.0,30.09,WSW,240,0.0,-999.0,82,-99.99,,,0.00,weatherlink.com 1.10,2013-08-03 14:45:00,
2013-08-03 10:00:00,77.8,72.0,30.09,SW,232,3.0,-999.0,81,-99.99,,,0.00,weatherlink.com 1.10,2013-08-03 15:00:00,
2013-08-03 10:15:00,78.4,72.0,30.10,SW,232,2.0,-999.0,81,-99.99,,,0.00,weatherlink.com 1.10,2013-08-03 15:15:00,
2013-08-03 10:30:00,78.7,72.0,30.10,SW,224,4.0,-999.0,80,-99.99,,,0.00,weatherlink.com 1.10,2013-08-03 15:30:00,
2013-08-03 10:45:00,79.4,72.0,30.10,SW,224,4.0,-999.0,79,-99.99,,,0.00,weatherlink.com 1.10,2013-08-03 15:45:00,
2013-08-03 11:00:00,79.5,72.0,30.11,WSW,244,6.0,-999.0,78,-99.99,,,0.00,weatherlink.com 1.10,2013-08-03 16:00:00,
2013-08-03 11:15:00,79.9,73.0,30.11,WSW,244,4.0,-999.0,79,-99.99,,,0.00,weatherlink.com 1.10,2013-08-03 16:15:00,
2013-08-03 11:30:00,80.1,72.0,30.11,West,281,8.0,-999.0,77,-99.99,,,0.00,weatherlink.com 1.10,2013-08-03 16:30:00,
2013-08-03 11:45:00,80.8,72.0,30.11,WSW,254,5.0,-999.0,75,-99.99,,,0.00,weatherlink.com 1.10,2013-08-03 16:45:00,
2013-08-03 12:00:00,81.5,73.0,30.11,SW,229,5.0,-999.0,75,-99.99,,,0.00,weatherlink.com 1.10,2013-08-03 17:00:00,
2013-08-03 12:15:00,82.0,73.0,30.11,WSW,240,10.0,-999.0,73,-99.99,,,0.00,weatherlink.com 1.10,2013-08-03 17:15:00,
2013-08-03 12:30:00,82.2,73.0,30.11,WSW,237,2.0,-999.0,74,-99.99,,,0.00,weatherlink.com 1.10,2013-08-03 17:30:00,
2013-08-03 12:45:00,82.3,74.0,30.10,NW,304,5.0,-999.0,75,-99.99,,,0.00,weatherlink.com 1.10,2013-08-03 17:45:00,
2013-08-03 13:00:00,81.9,74.0,30.10,WNW,290,4.0,-999.0,76,-99.99,,,0.00,weatherlink.com 1.10,2013-08-03 18:00:00,
2013-08-03 13:15:00,81.9,74.0,30.10,WNW,292,5.0,-999.0,76,-99.99,,,0.00,weatherlink.com 1.10,2013-08-03 18:15:00,
2013-08-03 13:30:00,82.4,75.0,30.10,WNW,296,4.0,-999.0,77,-99.99,,,0.00,weatherlink.com 1.10,2013-08-03 18:30:00,
2013-08-03 13:45:00,82.5,75.0,30.10,WNW,286,4.0,-999.0,77,-99.99,,,0.00,weatherlink.com 1.10,2013-08-03 18:45:00,
2013-08-03 14:00:00,82.8,76.0,30.09,West,263,6.0,-999.0,79,-99.99,,,0.00,weatherlink.com 1.10,2013-08-03 19:00:00,
2013-08-03 14:15:00,83.2,76.0,30.08,WSW,257,5.0,-999.0,78,-99.99,,,0.00,weatherlink.com 1.10,2013-08-03 19:15:00,
2013-08-03 14:30:00,82.8,75.0,30.08,NW,315,4.0,-999.0,77,-99.99,,,0.00,weatherlink.com 1.10,2013-08-03 19:30:00,
2013-08-03 14:45:00,74.7,72.0,30.09,ENE,66,0.0,-999.0,90,-99.99,,,0.00,weatherlink.com 1.10,2013-08-03 19:45:00,
2013-08-03 15:00:00,73.8,72.0,30.09,NW,309,0.0,-999.0,93,-99.99,,,0.00,weatherlink.com 1.10,2013-08-03 20:00:00,
2013-08-03 15:15:00,73.9,72.0,30.08,WSW,254,0.0,-999.0,94,-99.99,,,0.00,weatherlink.com 1.10,2013-08-03 20:15:00,
2013-08-03 15:30:00,74.1,72.0,30.07,NNW,346,0.0,-999.0,94,-99.99,,,0.00,weatherlink.com 1.10,2013-08-03 20:30:00,
2013-08-03 15:45:00,76.1,75.0,30.07,North,5,0.0,-999.0,95,-99.99,,,0.00,weatherlink.com 1.10,2013-08-03 20:45:00,
2013-08-03 16:00:00,77.9,75.0,30.07,NNE,17,0.0,-999.0,90,-99.99,,,0.00,weatherlink.com 1.10,2013-08-03 21:00:00,
2013-08-03 16:15:00,78.3,74.0,30.07,NW,322,0.0,-999.0,87,-99.99,,,0.00,weatherlink.com 1.10,2013-08-03 21:15:00,
2013-08-03 16:30:00,79.2,75.0,30.08,West,261,0.0,-999.0,86,-99.99,,,0.00,weatherlink.com 1.10,2013-08-03 21:30:00,
2013-08-03 16:45:00,79.7,75.0,30.07,SW,236,0.0,-999.0,86,-99.99,,,0.00,weatherlink.com 1.10,2013-08-03 21:45:00,
2013-08-03 17:00:00,79.0,75.0,30.07,SW,234,0.0,-999.0,88,-99.99,,,0.00,weatherlink.com 1.10,2013-08-03 22:00:00,
2013-08-03 17:15:00,78.5,75.0,30.07,SW,234,3.0,-999.0,89,-99.99,,,0.00,weatherlink.com 1.10,2013-08-03 22:15:00,
2013-08-03 17:30:00,78.1,75.0,30.07,SW,234,4.0,-999.0,90,-99.99,,,0.00,weatherlink.com 1.10,2013-08-03 22:30:00,
2013-08-03 17:45:00,78.0,75.0,30.07,SW,229,4.0,-999.0,91,-99.99,,,0.00,weatherlink.com 1.10,2013-08-03 22:45:00,
2013-08-03 18:00:00,78.3,75.0,30.07,WNW,284,5.0,-999.0,90,-99.99,,,0.00,weatherlink.com 1.10,2013-08-03 23:00:00,
2013-08-03 18:15:00,78.6,75.0,30.07,WNW,295,4.0,-999.0,89,-99.99,,,0.00,weatherlink.com 1.10,2013-08-03 23:15:00,
2013-08-03 18:30:00,78.5,75.0,30.06,WNW,295,0.0,-999.0,88,-99.99,,,0.00,weatherlink.com 1.10,2013-08-03 23:30:00,
2013-08-03 18:45:00,78.4,74.0,30.06,WNW,295,0.0,-999.0,86,-99.99,,,0.00,weatherlink.com 1.10,2013-08-03 23:45:00,
2013-08-03 19:00:00,77.9,75.0,30.05,WNW,295,0.0,-999.0,89,-99.99,,,0.00,weatherlink.com 1.10,2013-08-04 00:00:00,
2013-08-03 19:16:00,77.3,75.0,30.05,WNW,295,0.0,-999.0,92,-99.99,,,0.00,weatherlink.com 1.10,2013-08-04 00:16:00,
2013-08-03 19:30:00,76.8,74.0,30.05,WNW,295,0.0,-999.0,92,-99.99,,,0.00,weatherlink.com 1.10,2013-08-04 00:30:00,
2013-08-03 19:46:00,76.2,74.0,30.05,WNW,294,0.0,-999.0,94,-99.99,,,0.00,weatherlink.com 1.10,2013-08-04 00:46:00,
2013-08-03 20:00:00,75.8,74.0,30.06,WNW,294,0.0,-999.0,94,-99.99,,,0.00,weatherlink.com 1.10,2013-08-04 01:00:00,
2013-08-03 20:15:00,75.6,74.0,30.06,WNW,294,0.0,-999.0,94,-99.99,,,0.00,weatherlink.com 1.10,2013-08-04 01:15:00,
2013-08-03 20:31:00,75.3,74.0,30.07,WNW,294,0.0,-999.0,94,-99.99,,,0.00,weatherlink.com 1.10,2013-08-04 01:31:00,
2013-08-03 20:46:00,75.0,74.0,30.07,WNW,294,0.0,-999.0,95,-99.99,,,0.00,weatherlink.com 1.10,2013-08-04 01:46:00,
2013-08-03 21:01:00,74.8,73.0,30.08,WNW,294,0.0,-999.0,95,-99.99,,,0.00,weatherlink.com 1.10,2013-08-04 02:01:00,
2013-08-03 21:16:00,74.8,74.0,30.08,WNW,294,0.0,-999.0,96,-99.99,,,0.00,weatherlink.com 1.10,2013-08-04 02:16:00,
2013-08-03 21:31:00,74.6,73.0,30.08,WNW,294,0.0,-999.0,96,-99.99,,,0.00,weatherlink.com 1.10,2013-08-04 02:31:00,
2013-08-03 21:46:00,74.4,73.0,30.09,WNW,294,0.0,-999.0,96,-99.99,,,0.00,weatherlink.com 1.10,2013-08-04 02:46:00,
2013-08-03 22:01:00,74.4,74.0,30.10,WNW,294,0.0,-999.0,97,-99.99,,,0.00,weatherlink.com 1.10,2013-08-04 03:01:00,
2013-08-03 22:16:00,74.5,74.0,30.10,WNW,294,0.0,-999.0,97,-99.99,,,0.00,weatherlink.com 1.10,2013-08-04 03:16:00,
2013-08-03 22:31:00,74.5,74.0,30.11,WNW,294,0.0,-999.0,97,-99.99,,,0.00,weatherlink.com 1.10,2013-08-04 03:31:00,
2013-08-03 22:46:00,74.6,74.0,30.11,WNW,294,0.0,-999.0,97,-99.99,,,0.00,weatherlink.com 1.10,2013-08-04 03:46:00,
2013-08-03 23:01:00,74.4,74.0,30.11,WNW,294,0.0,-999.0,97,-99.99,,,0.00,weatherlink.com 1.10,2013-08-04 04:01:00,
2013-08-03 23:16:00,74.1,73.0,30.11,WNW,294,0.0,-999.0,96,-99.99,,,0.00,weatherlink.com 1.10,2013-08-04 04:16:00,
2013-08-03 23:31:00,73.9,73.0,30.11,WNW,294,0.0,-999.0,96,-99.99,,,0.00,weatherlink.com 1.10,2013-08-04 04:31:00,
2013-08-03 23:46:00,73.8,73.0,30.10,WNW,294,0.0,-999.0,97,-99.99,,,0.00,weatherlink.com 1.10,2013-08-04 04:46:00,